sensor_id;sensor_type;location;lat;lon;timestamp;P1;durP1;ratioP1;P2;durP2;ratioP2
70303;SDS011;57712;48.752;11.348;2023-12-20T00:01:06;9.82;;;5.28;;
70303;SDS011;57712;48.752;11.348;2023-12-20T00:03:33;10.55;;;5.00;;
70303;SDS011;57712;48.752;11.348;2023-12-20T00:06:08;10.17;;;4.50;;
70303;SDS011;57712;48.752;11.348;2023-12-20T00:08:35;9.38;;;4.50;;
70303;SDS011;57712;48.752;11.348;2023-12-20T00:11:02;9.20;;;4.38;;
70303;SDS011;57712;48.752;11.348;2023-12-20T00:13:29;9.52;;;4.35;;
70303;SDS011;57712;48.752;11.348;2023-12-20T00:15:56;8.48;;;4.28;;
70303;SDS011;57712;48.752;11.348;2023-12-20T00:18:23;10.07;;;3.77;;
70303;SDS011;57712;48.752;11.348;2023-12-20T00:20:50;8.32;;;4.22;;
70303;SDS011;57712;48.752;11.348;2023-12-20T00:23:17;8.60;;;4.43;;
70303;SDS011;57712;48.752;11.348;2023-12-20T00:25:43;9.43;;;4.03;;
70303;SDS011;57712;48.752;11.348;2023-12-20T00:28:10;8.93;;;4.38;;
70303;SDS011;57712;48.752;11.348;2023-12-20T00:30:37;8.90;;;3.80;;
70303;SDS011;57712;48.752;11.348;2023-12-20T00:33:03;9.07;;;4.30;;
70303;SDS011;57712;48.752;11.348;2023-12-20T00:35:30;8.88;;;4.00;;
70303;SDS011;57712;48.752;11.348;2023-12-20T00:37:58;8.25;;;3.90;;
70303;SDS011;57712;48.752;11.348;2023-12-20T00:40:25;8.77;;;3.80;;
70303;SDS011;57712;48.752;11.348;2023-12-20T00:42:52;7.73;;;3.73;;
70303;SDS011;57712;48.752;11.348;2023-12-20T00:45:19;7.72;;;3.45;;
70303;SDS011;57712;48.752;11.348;2023-12-20T00:47:45;8.18;;;3.60;;
70303;SDS011;57712;48.752;11.348;2023-12-20T00:50:13;9.32;;;3.72;;
70303;SDS011;57712;48.752;11.348;2023-12-20T00:52:39;8.43;;;4.10;;
70303;SDS011;57712;48.752;11.348;2023-12-20T00:55:06;8.07;;;3.93;;
70303;SDS011;57712;48.752;11.348;2023-12-20T00:57:34;8.68;;;3.50;;
70303;SDS011;57712;48.752;11.348;2023-12-20T01:00:01;8.60;;;4.03;;
70303;SDS011;57712;48.752;11.348;2023-12-20T01:02:28;8.65;;;3.88;;
70303;SDS011;57712;48.752;11.348;2023-12-20T01:04:55;8.65;;;3.65;;
70303;SDS011;57712;48.752;11.348;2023-12-20T01:07:22;7.83;;;3.70;;
70303;SDS011;57712;48.752;11.348;2023-12-20T01:09:49;7.82;;;3.80;;
70303;SDS011;57712;48.752;11.348;2023-12-20T01:12:16;8.68;;;3.83;;
70303;SDS011;57712;48.752;11.348;2023-12-20T01:14:45;7.80;;;3.50;;
70303;SDS011;57712;48.752;11.348;2023-12-20T01:17:12;7.80;;;3.55;;
70303;SDS011;57712;48.752;11.348;2023-12-20T01:19:39;7.17;;;3.47;;
70303;SDS011;57712;48.752;11.348;2023-12-20T01:22:06;7.53;;;3.25;;
70303;SDS011;57712;48.752;11.348;2023-12-20T01:24:32;7.45;;;3.30;;
70303;SDS011;57712;48.752;11.348;2023-12-20T01:26:59;7.53;;;3.53;;
70303;SDS011;57712;48.752;11.348;2023-12-20T01:29:26;7.25;;;3.20;;
70303;SDS011;57712;48.752;11.348;2023-12-20T01:31:52;7.50;;;2.83;;
70303;SDS011;57712;48.752;11.348;2023-12-20T01:34:19;7.40;;;2.85;;
70303;SDS011;57712;48.752;11.348;2023-12-20T01:36:46;7.95;;;3.17;;
70303;SDS011;57712;48.752;11.348;2023-12-20T01:39:12;6.93;;;3.28;;
70303;SDS011;57712;48.752;11.348;2023-12-20T01:41:53;7.50;;;3.28;;
70303;SDS011;57712;48.752;11.348;2023-12-20T01:44:20;7.70;;;3.60;;
70303;SDS011;57712;48.752;11.348;2023-12-20T01:46:47;8.32;;;3.55;;
70303;SDS011;57712;48.752;11.348;2023-12-20T01:49:14;7.32;;;3.63;;
70303;SDS011;57712;48.752;11.348;2023-12-20T01:51:42;7.72;;;3.70;;
70303;SDS011;57712;48.752;11.348;2023-12-20T01:54:09;7.70;;;3.45;;
70303;SDS011;57712;48.752;11.348;2023-12-20T01:56:38;7.47;;;3.53;;
70303;SDS011;57712;48.752;11.348;2023-12-20T01:59:06;10.10;;;4.93;;
70303;SDS011;57712;48.752;11.348;2023-12-20T02:01:34;7.45;;;3.95;;
70303;SDS011;57712;48.752;11.348;2023-12-20T02:04:02;8.82;;;3.42;;
70303;SDS011;57712;48.752;11.348;2023-12-20T02:06:30;7.45;;;3.00;;
70303;SDS011;57712;48.752;11.348;2023-12-20T02:09:00;7.80;;;3.20;;
70303;SDS011;57712;48.752;11.348;2023-12-20T02:11:27;8.18;;;3.15;;
70303;SDS011;57712;48.752;11.348;2023-12-20T02:13:54;7.43;;;3.03;;
70303;SDS011;57712;48.752;11.348;2023-12-20T02:16:21;7.07;;;3.00;;
70303;SDS011;57712;48.752;11.348;2023-12-20T02:18:48;6.85;;;2.70;;
70303;SDS011;57712;48.752;11.348;2023-12-20T02:21:16;6.43;;;2.77;;
70303;SDS011;57712;48.752;11.348;2023-12-20T02:23:42;6.70;;;2.90;;
70303;SDS011;57712;48.752;11.348;2023-12-20T02:26:09;7.07;;;2.53;;
70303;SDS011;57712;48.752;11.348;2023-12-20T02:28:36;7.22;;;2.50;;
70303;SDS011;57712;48.752;11.348;2023-12-20T02:31:03;7.00;;;2.67;;
70303;SDS011;57712;48.752;11.348;2023-12-20T02:33:30;7.97;;;2.50;;
70303;SDS011;57712;48.752;11.348;2023-12-20T02:35:57;7.78;;;3.00;;
70303;SDS011;57712;48.752;11.348;2023-12-20T02:38:24;5.70;;;2.42;;
70303;SDS011;57712;48.752;11.348;2023-12-20T02:40:50;6.65;;;2.50;;
70303;SDS011;57712;48.752;11.348;2023-12-20T02:43:17;6.25;;;2.10;;
70303;SDS011;57712;48.752;11.348;2023-12-20T02:45:44;6.83;;;2.57;;
70303;SDS011;57712;48.752;11.348;2023-12-20T02:48:11;6.10;;;1.90;;
70303;SDS011;57712;48.752;11.348;2023-12-20T02:50:38;6.28;;;2.17;;
70303;SDS011;57712;48.752;11.348;2023-12-20T02:53:05;5.60;;;1.90;;
70303;SDS011;57712;48.752;11.348;2023-12-20T02:55:31;5.32;;;1.92;;
70303;SDS011;57712;48.752;11.348;2023-12-20T02:57:58;6.57;;;2.27;;
70303;SDS011;57712;48.752;11.348;2023-12-20T03:00:25;4.85;;;1.63;;
70303;SDS011;57712;48.752;11.348;2023-12-20T03:02:52;5.70;;;1.67;;
70303;SDS011;57712;48.752;11.348;2023-12-20T03:05:18;5.70;;;2.13;;
70303;SDS011;57712;48.752;11.348;2023-12-20T03:07:47;5.88;;;1.67;;
70303;SDS011;57712;48.752;11.348;2023-12-20T03:10:14;6.20;;;1.93;;
70303;SDS011;57712;48.752;11.348;2023-12-20T03:12:51;5.63;;;1.90;;
70303;SDS011;57712;48.752;11.348;2023-12-20T03:15:18;6.03;;;2.25;;
70303;SDS011;57712;48.752;11.348;2023-12-20T03:17:45;4.88;;;1.85;;
70303;SDS011;57712;48.752;11.348;2023-12-20T03:20:12;7.47;;;2.10;;
70303;SDS011;57712;48.752;11.348;2023-12-20T03:22:39;7.33;;;2.47;;
70303;SDS011;57712;48.752;11.348;2023-12-20T03:25:05;6.47;;;2.40;;
70303;SDS011;57712;48.752;11.348;2023-12-20T03:27:32;6.15;;;2.50;;
70303;SDS011;57712;48.752;11.348;2023-12-20T03:29:59;6.03;;;2.42;;
70303;SDS011;57712;48.752;11.348;2023-12-20T03:32:25;6.20;;;2.20;;
70303;SDS011;57712;48.752;11.348;2023-12-20T03:34:52;6.20;;;2.40;;
70303;SDS011;57712;48.752;11.348;2023-12-20T03:37:19;6.57;;;2.30;;
70303;SDS011;57712;48.752;11.348;2023-12-20T03:39:46;6.97;;;3.03;;
70303;SDS011;57712;48.752;11.348;2023-12-20T03:42:13;7.13;;;2.70;;
70303;SDS011;57712;48.752;11.348;2023-12-20T03:44:40;7.32;;;2.50;;
70303;SDS011;57712;48.752;11.348;2023-12-20T03:47:07;7.73;;;2.77;;
70303;SDS011;57712;48.752;11.348;2023-12-20T03:49:34;7.95;;;3.08;;
70303;SDS011;57712;48.752;11.348;2023-12-20T03:52:04;7.47;;;3.40;;
70303;SDS011;57712;48.752;11.348;2023-12-20T03:54:31;11.82;;;4.63;;
70303;SDS011;57712;48.752;11.348;2023-12-20T03:56:58;9.13;;;3.78;;
70303;SDS011;57712;48.752;11.348;2023-12-20T03:59:24;8.23;;;3.23;;
70303;SDS011;57712;48.752;11.348;2023-12-20T04:01:53;8.57;;;3.75;;
70303;SDS011;57712;48.752;11.348;2023-12-20T04:04:20;8.48;;;3.92;;
70303;SDS011;57712;48.752;11.348;2023-12-20T04:06:47;9.00;;;4.22;;
70303;SDS011;57712;48.752;11.348;2023-12-20T04:09:13;9.20;;;4.50;;
70303;SDS011;57712;48.752;11.348;2023-12-20T04:11:40;9.07;;;4.10;;
70303;SDS011;57712;48.752;11.348;2023-12-20T04:14:07;8.52;;;3.80;;
70303;SDS011;57712;48.752;11.348;2023-12-20T04:16:34;9.02;;;4.00;;
70303;SDS011;57712;48.752;11.348;2023-12-20T04:19:01;9.32;;;3.97;;
70303;SDS011;57712;48.752;11.348;2023-12-20T04:21:29;8.98;;;3.72;;
70303;SDS011;57712;48.752;11.348;2023-12-20T04:23:55;8.67;;;4.03;;
70303;SDS011;57712;48.752;11.348;2023-12-20T04:26:22;9.07;;;3.95;;
70303;SDS011;57712;48.752;11.348;2023-12-20T04:28:49;8.40;;;3.83;;
70303;SDS011;57712;48.752;11.348;2023-12-20T04:31:20;9.02;;;3.90;;
70303;SDS011;57712;48.752;11.348;2023-12-20T04:33:47;8.30;;;3.88;;
70303;SDS011;57712;48.752;11.348;2023-12-20T04:36:13;9.17;;;4.10;;
70303;SDS011;57712;48.752;11.348;2023-12-20T04:38:40;9.32;;;4.10;;
70303;SDS011;57712;48.752;11.348;2023-12-20T04:41:07;8.32;;;3.90;;
70303;SDS011;57712;48.752;11.348;2023-12-20T04:43:34;7.65;;;3.20;;
70303;SDS011;57712;48.752;11.348;2023-12-20T04:46:00;9.05;;;4.15;;
70303;SDS011;57712;48.752;11.348;2023-12-20T04:48:27;8.03;;;3.60;;
70303;SDS011;57712;48.752;11.348;2023-12-20T04:50:54;8.48;;;3.50;;
70303;SDS011;57712;48.752;11.348;2023-12-20T04:53:20;10.32;;;3.90;;
70303;SDS011;57712;48.752;11.348;2023-12-20T04:55:47;7.38;;;3.25;;
70303;SDS011;57712;48.752;11.348;2023-12-20T04:58:14;8.70;;;3.50;;
70303;SDS011;57712;48.752;11.348;2023-12-20T05:00:41;8.50;;;3.70;;
70303;SDS011;57712;48.752;11.348;2023-12-20T05:03:07;7.63;;;3.35;;
70303;SDS011;57712;48.752;11.348;2023-12-20T05:05:35;7.72;;;3.22;;
70303;SDS011;57712;48.752;11.348;2023-12-20T05:08:02;8.20;;;3.38;;
70303;SDS011;57712;48.752;11.348;2023-12-20T05:10:29;7.32;;;3.40;;
70303;SDS011;57712;48.752;11.348;2023-12-20T05:12:56;7.33;;;3.00;;
70303;SDS011;57712;48.752;11.348;2023-12-20T05:15:23;8.48;;;3.15;;
70303;SDS011;57712;48.752;11.348;2023-12-20T05:17:50;6.75;;;2.85;;
70303;SDS011;57712;48.752;11.348;2023-12-20T05:20:16;6.78;;;2.85;;
70303;SDS011;57712;48.752;11.348;2023-12-20T05:22:43;8.40;;;3.40;;
70303;SDS011;57712;48.752;11.348;2023-12-20T05:25:12;8.73;;;3.77;;
70303;SDS011;57712;48.752;11.348;2023-12-20T05:27:38;6.75;;;2.53;;
70303;SDS011;57712;48.752;11.348;2023-12-20T05:30:05;8.50;;;3.33;;
70303;SDS011;57712;48.752;11.348;2023-12-20T05:32:33;6.35;;;2.40;;
70303;SDS011;57712;48.752;11.348;2023-12-20T05:34:59;8.20;;;3.00;;
70303;SDS011;57712;48.752;11.348;2023-12-20T05:37:27;7.07;;;2.63;;
70303;SDS011;57712;48.752;11.348;2023-12-20T05:39:53;7.03;;;2.78;;
70303;SDS011;57712;48.752;11.348;2023-12-20T05:42:20;7.63;;;3.28;;
70303;SDS011;57712;48.752;11.348;2023-12-20T05:44:47;9.05;;;3.40;;
70303;SDS011;57712;48.752;11.348;2023-12-20T05:47:16;7.63;;;3.38;;
70303;SDS011;57712;48.752;11.348;2023-12-20T05:49:43;8.50;;;3.77;;
70303;SDS011;57712;48.752;11.348;2023-12-20T05:52:10;10.73;;;3.70;;
70303;SDS011;57712;48.752;11.348;2023-12-20T05:54:37;9.63;;;4.32;;
70303;SDS011;57712;48.752;11.348;2023-12-20T05:57:04;8.75;;;4.00;;
70303;SDS011;57712;48.752;11.348;2023-12-20T05:59:31;9.80;;;4.70;;
70303;SDS011;57712;48.752;11.348;2023-12-20T06:01:57;10.07;;;5.00;;
70303;SDS011;57712;48.752;11.348;2023-12-20T06:04:24;9.93;;;4.80;;
70303;SDS011;57712;48.752;11.348;2023-12-20T06:06:51;9.77;;;4.55;;
70303;SDS011;57712;48.752;11.348;2023-12-20T06:09:17;10.32;;;4.70;;
70303;SDS011;57712;48.752;11.348;2023-12-20T06:11:44;9.68;;;4.50;;
70303;SDS011;57712;48.752;11.348;2023-12-20T06:14:11;10.83;;;5.10;;
70303;SDS011;57712;48.752;11.348;2023-12-20T06:16:37;12.57;;;5.85;;
70303;SDS011;57712;48.752;11.348;2023-12-20T06:19:04;10.63;;;4.78;;
70303;SDS011;57712;48.752;11.348;2023-12-20T06:21:31;9.68;;;5.25;;
70303;SDS011;57712;48.752;11.348;2023-12-20T06:23:58;11.15;;;4.38;;
70303;SDS011;57712;48.752;11.348;2023-12-20T06:26:25;8.90;;;4.87;;
70303;SDS011;57712;48.752;11.348;2023-12-20T06:28:52;10.70;;;4.68;;
70303;SDS011;57712;48.752;11.348;2023-12-20T06:31:18;10.15;;;4.93;;
70303;SDS011;57712;48.752;11.348;2023-12-20T06:33:45;9.32;;;4.22;;
70303;SDS011;57712;48.752;11.348;2023-12-20T06:36:12;9.65;;;4.38;;
70303;SDS011;57712;48.752;11.348;2023-12-20T06:38:39;9.07;;;3.97;;
70303;SDS011;57712;48.752;11.348;2023-12-20T06:41:06;8.68;;;4.00;;
70303;SDS011;57712;48.752;11.348;2023-12-20T06:43:33;9.07;;;4.10;;
70303;SDS011;57712;48.752;11.348;2023-12-20T06:46:14;8.35;;;3.58;;
70303;SDS011;57712;48.752;11.348;2023-12-20T06:48:41;8.80;;;3.60;;
70303;SDS011;57712;48.752;11.348;2023-12-20T06:51:13;7.33;;;3.07;;
70303;SDS011;57712;48.752;11.348;2023-12-20T06:53:42;7.45;;;3.13;;
70303;SDS011;57712;48.752;11.348;2023-12-20T06:56:10;8.32;;;3.03;;
70303;SDS011;57712;48.752;11.348;2023-12-20T06:58:41;8.43;;;3.45;;
70303;SDS011;57712;48.752;11.348;2023-12-20T07:01:12;7.68;;;2.90;;
70303;SDS011;57712;48.752;11.348;2023-12-20T07:03:39;6.67;;;2.77;;
70303;SDS011;57712;48.752;11.348;2023-12-20T07:06:07;6.22;;;2.70;;
70303;SDS011;57712;48.752;11.348;2023-12-20T07:08:34;7.40;;;2.90;;
70303;SDS011;57712;48.752;11.348;2023-12-20T07:11:01;7.13;;;2.60;;
70303;SDS011;57712;48.752;11.348;2023-12-20T07:13:27;7.28;;;2.80;;
70303;SDS011;57712;48.752;11.348;2023-12-20T07:15:54;8.07;;;2.97;;
70303;SDS011;57712;48.752;11.348;2023-12-20T07:18:20;6.97;;;2.88;;
70303;SDS011;57712;48.752;11.348;2023-12-20T07:20:47;7.20;;;3.40;;
70303;SDS011;57712;48.752;11.348;2023-12-20T07:23:14;7.22;;;2.60;;
70303;SDS011;57712;48.752;11.348;2023-12-20T07:25:40;6.82;;;2.45;;
70303;SDS011;57712;48.752;11.348;2023-12-20T07:28:07;6.90;;;2.80;;
70303;SDS011;57712;48.752;11.348;2023-12-20T07:30:34;7.65;;;3.03;;
70303;SDS011;57712;48.752;11.348;2023-12-20T07:33:01;6.97;;;2.67;;
70303;SDS011;57712;48.752;11.348;2023-12-20T07:35:29;7.72;;;2.80;;
70303;SDS011;57712;48.752;11.348;2023-12-20T07:37:55;8.18;;;2.75;;
70303;SDS011;57712;48.752;11.348;2023-12-20T07:40:22;8.27;;;3.07;;
70303;SDS011;57712;48.752;11.348;2023-12-20T07:42:50;7.30;;;3.17;;
70303;SDS011;57712;48.752;11.348;2023-12-20T07:45:17;9.35;;;3.60;;
70303;SDS011;57712;48.752;11.348;2023-12-20T07:47:43;7.63;;;3.20;;
70303;SDS011;57712;48.752;11.348;2023-12-20T07:50:11;8.02;;;4.10;;
70303;SDS011;57712;48.752;11.348;2023-12-20T07:52:38;9.20;;;4.10;;
70303;SDS011;57712;48.752;11.348;2023-12-20T07:55:05;7.90;;;3.42;;
70303;SDS011;57712;48.752;11.348;2023-12-20T07:57:32;10.90;;;4.50;;
70303;SDS011;57712;48.752;11.348;2023-12-20T07:59:58;9.00;;;4.55;;
70303;SDS011;57712;48.752;11.348;2023-12-20T08:02:25;9.32;;;4.45;;
70303;SDS011;57712;48.752;11.348;2023-12-20T08:04:52;9.37;;;4.30;;
70303;SDS011;57712;48.752;11.348;2023-12-20T08:07:18;9.45;;;4.47;;
70303;SDS011;57712;48.752;11.348;2023-12-20T08:09:45;8.07;;;4.00;;
70303;SDS011;57712;48.752;11.348;2023-12-20T08:12:12;9.10;;;4.50;;
70303;SDS011;57712;48.752;11.348;2023-12-20T08:14:39;9.60;;;4.75;;
70303;SDS011;57712;48.752;11.348;2023-12-20T08:17:05;8.37;;;4.20;;
70303;SDS011;57712;48.752;11.348;2023-12-20T08:19:32;9.13;;;4.05;;
70303;SDS011;57712;48.752;11.348;2023-12-20T08:21:59;9.07;;;4.60;;
70303;SDS011;57712;48.752;11.348;2023-12-20T08:24:25;8.63;;;3.72;;
70303;SDS011;57712;48.752;11.348;2023-12-20T08:26:52;7.90;;;3.47;;
70303;SDS011;57712;48.752;11.348;2023-12-20T08:29:19;7.50;;;3.33;;
70303;SDS011;57712;48.752;11.348;2023-12-20T08:31:45;8.13;;;3.63;;
70303;SDS011;57712;48.752;11.348;2023-12-20T08:34:13;7.35;;;3.60;;
70303;SDS011;57712;48.752;11.348;2023-12-20T08:36:41;6.90;;;3.00;;
70303;SDS011;57712;48.752;11.348;2023-12-20T08:39:08;8.02;;;3.33;;
70303;SDS011;57712;48.752;11.348;2023-12-20T08:41:35;7.00;;;3.50;;
70303;SDS011;57712;48.752;11.348;2023-12-20T08:44:03;8.15;;;3.50;;
70303;SDS011;57712;48.752;11.348;2023-12-20T08:46:30;9.10;;;4.47;;
70303;SDS011;57712;48.752;11.348;2023-12-20T08:48:57;7.60;;;3.63;;
70303;SDS011;57712;48.752;11.348;2023-12-20T08:51:24;9.15;;;4.10;;
70303;SDS011;57712;48.752;11.348;2023-12-20T08:53:52;8.40;;;4.10;;
70303;SDS011;57712;48.752;11.348;2023-12-20T08:56:18;8.60;;;3.90;;
70303;SDS011;57712;48.752;11.348;2023-12-20T08:58:46;9.60;;;3.90;;
70303;SDS011;57712;48.752;11.348;2023-12-20T09:01:13;8.15;;;3.50;;
70303;SDS011;57712;48.752;11.348;2023-12-20T09:03:41;7.57;;;3.60;;
70303;SDS011;57712;48.752;11.348;2023-12-20T09:06:08;8.57;;;3.93;;
70303;SDS011;57712;48.752;11.348;2023-12-20T09:08:34;9.38;;;3.80;;
70303;SDS011;57712;48.752;11.348;2023-12-20T09:11:01;8.27;;;3.97;;
70303;SDS011;57712;48.752;11.348;2023-12-20T09:13:28;6.15;;;2.63;;
70303;SDS011;57712;48.752;11.348;2023-12-20T09:15:55;7.43;;;3.03;;
70303;SDS011;57712;48.752;11.348;2023-12-20T09:18:23;6.57;;;2.97;;
70303;SDS011;57712;48.752;11.348;2023-12-20T09:20:50;5.70;;;2.40;;
70303;SDS011;57712;48.752;11.348;2023-12-20T09:23:16;5.85;;;2.60;;
70303;SDS011;57712;48.752;11.348;2023-12-20T09:25:44;6.60;;;2.53;;
70303;SDS011;57712;48.752;11.348;2023-12-20T09:28:11;7.78;;;2.40;;
70303;SDS011;57712;48.752;11.348;2023-12-20T09:30:38;6.03;;;2.47;;
70303;SDS011;57712;48.752;11.348;2023-12-20T09:33:06;5.22;;;2.08;;
70303;SDS011;57712;48.752;11.348;2023-12-20T09:35:34;5.75;;;1.90;;
70303;SDS011;57712;48.752;11.348;2023-12-20T09:38:01;6.07;;;2.72;;
70303;SDS011;57712;48.752;11.348;2023-12-20T09:40:28;6.05;;;2.55;;
70303;SDS011;57712;48.752;11.348;2023-12-20T09:45:30;5.57;;;2.30;;
70303;SDS011;57712;48.752;11.348;2023-12-20T09:47:58;6.85;;;3.25;;
70303;SDS011;57712;48.752;11.348;2023-12-20T09:50:26;5.70;;;2.40;;
70303;SDS011;57712;48.752;11.348;2023-12-20T09:52:53;7.65;;;3.20;;
70303;SDS011;57712;48.752;11.348;2023-12-20T09:55:20;5.43;;;2.13;;
70303;SDS011;57712;48.752;11.348;2023-12-20T09:57:48;7.63;;;2.22;;
70303;SDS011;57712;48.752;11.348;2023-12-20T10:00:16;7.00;;;2.33;;
70303;SDS011;57712;48.752;11.348;2023-12-20T10:02:56;6.63;;;2.78;;
70303;SDS011;57712;48.752;11.348;2023-12-20T10:05:26;5.80;;;2.58;;
70303;SDS011;57712;48.752;11.348;2023-12-20T10:07:54;5.30;;;1.83;;
70303;SDS011;57712;48.752;11.348;2023-12-20T10:10:21;6.60;;;2.17;;
70303;SDS011;57712;48.752;11.348;2023-12-20T10:13:10;7.90;;;2.55;;
70303;SDS011;57712;48.752;11.348;2023-12-20T10:15:39;4.65;;;1.70;;
70303;SDS011;57712;48.752;11.348;2023-12-20T10:18:08;4.90;;;1.67;;
70303;SDS011;57712;48.752;11.348;2023-12-20T10:20:35;5.17;;;1.87;;
70303;SDS011;57712;48.752;11.348;2023-12-20T10:23:03;5.95;;;1.60;;
70303;SDS011;57712;48.752;11.348;2023-12-20T10:25:30;5.45;;;1.85;;
70303;SDS011;57712;48.752;11.348;2023-12-20T10:28:14;5.50;;;1.75;;
70303;SDS011;57712;48.752;11.348;2023-12-20T10:30:45;5.25;;;1.50;;
70303;SDS011;57712;48.752;11.348;2023-12-20T10:33:12;5.83;;;1.93;;
70303;SDS011;57712;48.752;11.348;2023-12-20T10:35:39;5.05;;;1.50;;
70303;SDS011;57712;48.752;11.348;2023-12-20T10:38:11;5.72;;;1.75;;
70303;SDS011;57712;48.752;11.348;2023-12-20T10:40:40;5.72;;;1.67;;
70303;SDS011;57712;48.752;11.348;2023-12-20T10:43:07;5.15;;;1.70;;
70303;SDS011;57712;48.752;11.348;2023-12-20T10:45:35;5.37;;;1.50;;
70303;SDS011;57712;48.752;11.348;2023-12-20T10:48:02;4.85;;;1.30;;
70303;SDS011;57712;48.752;11.348;2023-12-20T10:50:30;4.85;;;1.67;;
70303;SDS011;57712;48.752;11.348;2023-12-20T10:52:58;4.82;;;1.40;;
70303;SDS011;57712;48.752;11.348;2023-12-20T10:55:26;5.80;;;1.20;;
70303;SDS011;57712;48.752;11.348;2023-12-20T10:57:54;3.90;;;1.30;;
70303;SDS011;57712;48.752;11.348;2023-12-20T11:00:28;4.57;;;1.48;;
70303;SDS011;57712;48.752;11.348;2023-12-20T11:02:59;5.13;;;1.88;;
70303;SDS011;57712;48.752;11.348;2023-12-20T11:05:34;4.60;;;1.50;;
70303;SDS011;57712;48.752;11.348;2023-12-20T11:08:11;4.50;;;1.45;;
70303;SDS011;57712;48.752;11.348;2023-12-20T11:13:53;5.65;;;1.83;;
70303;SDS011;57712;48.752;11.348;2023-12-20T11:16:23;5.22;;;1.80;;
70303;SDS011;57712;48.752;11.348;2023-12-20T11:18:55;5.28;;;1.70;;
70303;SDS011;57712;48.752;11.348;2023-12-20T11:21:21;5.05;;;1.50;;
70303;SDS011;57712;48.752;11.348;2023-12-20T11:23:48;4.13;;;1.50;;
70303;SDS011;57712;48.752;11.348;2023-12-20T11:26:15;4.57;;;1.50;;
70303;SDS011;57712;48.752;11.348;2023-12-20T11:28:43;4.10;;;1.45;;
70303;SDS011;57712;48.752;11.348;2023-12-20T11:31:12;4.20;;;1.42;;
70303;SDS011;57712;48.752;11.348;2023-12-20T11:33:40;4.00;;;1.27;;
70303;SDS011;57712;48.752;11.348;2023-12-20T11:36:14;4.17;;;1.10;;
70303;SDS011;57712;48.752;11.348;2023-12-20T11:38:55;4.03;;;1.23;;
70303;SDS011;57712;48.752;11.348;2023-12-20T11:41:23;4.63;;;1.25;;
70303;SDS011;57712;48.752;11.348;2023-12-20T11:43:54;4.00;;;1.20;;
70303;SDS011;57712;48.752;11.348;2023-12-20T11:46:22;4.50;;;1.38;;
70303;SDS011;57712;48.752;11.348;2023-12-20T11:48:50;5.53;;;1.40;;
70303;SDS011;57712;48.752;11.348;2023-12-20T11:51:17;4.10;;;1.08;;
70303;SDS011;57712;48.752;11.348;2023-12-20T11:53:43;3.92;;;1.20;;
70303;SDS011;57712;48.752;11.348;2023-12-20T11:56:10;4.57;;;1.20;;
70303;SDS011;57712;48.752;11.348;2023-12-20T11:58:37;3.40;;;0.95;;
70303;SDS011;57712;48.752;11.348;2023-12-20T12:01:04;3.80;;;0.87;;
70303;SDS011;57712;48.752;11.348;2023-12-20T12:03:35;4.97;;;1.00;;
70303;SDS011;57712;48.752;11.348;2023-12-20T12:06:02;3.55;;;0.80;;
70303;SDS011;57712;48.752;11.348;2023-12-20T12:08:31;4.28;;;0.70;;
70303;SDS011;57712;48.752;11.348;2023-12-20T12:10:58;3.70;;;0.88;;
70303;SDS011;57712;48.752;11.348;2023-12-20T12:13:25;3.90;;;0.77;;
70303;SDS011;57712;48.752;11.348;2023-12-20T12:15:55;4.57;;;0.70;;
70303;SDS011;57712;48.752;11.348;2023-12-20T12:18:21;4.72;;;0.63;;
70303;SDS011;57712;48.752;11.348;2023-12-20T12:20:48;5.90;;;0.70;;
70303;SDS011;57712;48.752;11.348;2023-12-20T12:23:22;4.38;;;0.75;;
70303;SDS011;57712;48.752;11.348;2023-12-20T12:25:50;4.30;;;0.50;;
70303;SDS011;57712;48.752;11.348;2023-12-20T12:28:17;6.30;;;1.50;;
70303;SDS011;57712;48.752;11.348;2023-12-20T12:30:55;5.53;;;1.10;;
70303;SDS011;57712;48.752;11.348;2023-12-20T12:33:23;5.10;;;0.80;;
70303;SDS011;57712;48.752;11.348;2023-12-20T12:35:51;5.90;;;1.33;;
70303;SDS011;57712;48.752;11.348;2023-12-20T12:38:21;6.40;;;0.90;;
70303;SDS011;57712;48.752;11.348;2023-12-20T12:40:49;5.47;;;0.95;;
70303;SDS011;57712;48.752;11.348;2023-12-20T12:43:16;7.82;;;1.20;;
70303;SDS011;57712;48.752;11.348;2023-12-20T12:45:43;8.07;;;1.48;;
70303;SDS011;57712;48.752;11.348;2023-12-20T12:48:10;6.97;;;1.67;;
70303;SDS011;57712;48.752;11.348;2023-12-20T12:50:37;6.10;;;1.50;;
70303;SDS011;57712;48.752;11.348;2023-12-20T12:53:04;7.30;;;1.33;;
70303;SDS011;57712;48.752;11.348;2023-12-20T12:55:30;6.55;;;0.90;;
70303;SDS011;57712;48.752;11.348;2023-12-20T12:57:57;7.10;;;1.50;;
70303;SDS011;57712;48.752;11.348;2023-12-20T13:00:24;5.03;;;1.08;;
70303;SDS011;57712;48.752;11.348;2023-12-20T13:02:52;5.63;;;0.77;;
70303;SDS011;57712;48.752;11.348;2023-12-20T13:05:19;4.78;;;0.77;;
70303;SDS011;57712;48.752;11.348;2023-12-20T13:07:46;7.32;;;1.73;;
70303;SDS011;57712;48.752;11.348;2023-12-20T13:10:13;4.85;;;0.73;;
70303;SDS011;57712;48.752;11.348;2023-12-20T13:12:43;5.25;;;0.95;;
70303;SDS011;57712;48.752;11.348;2023-12-20T13:15:10;6.83;;;1.20;;
70303;SDS011;57712;48.752;11.348;2023-12-20T13:17:36;4.05;;;0.63;;
70303;SDS011;57712;48.752;11.348;2023-12-20T13:20:04;5.35;;;0.90;;
70303;SDS011;57712;48.752;11.348;2023-12-20T13:22:31;4.45;;;0.70;;
70303;SDS011;57712;48.752;11.348;2023-12-20T13:24:58;7.03;;;1.33;;
70303;SDS011;57712;48.752;11.348;2023-12-20T13:27:25;7.10;;;1.30;;
70303;SDS011;57712;48.752;11.348;2023-12-20T13:29:51;7.50;;;1.40;;
70303;SDS011;57712;48.752;11.348;2023-12-20T13:32:18;6.85;;;1.30;;
70303;SDS011;57712;48.752;11.348;2023-12-20T13:34:46;4.88;;;0.65;;
70303;SDS011;57712;48.752;11.348;2023-12-20T13:37:14;5.63;;;1.00;;
70303;SDS011;57712;48.752;11.348;2023-12-20T13:39:41;6.50;;;0.90;;
70303;SDS011;57712;48.752;11.348;2023-12-20T13:42:07;3.90;;;0.60;;
70303;SDS011;57712;48.752;11.348;2023-12-20T13:44:34;7.60;;;1.00;;
70303;SDS011;57712;48.752;11.348;2023-12-20T13:47:00;5.25;;;0.75;;
70303;SDS011;57712;48.752;11.348;2023-12-20T13:49:28;5.78;;;0.85;;
70303;SDS011;57712;48.752;11.348;2023-12-20T13:51:55;4.23;;;0.60;;
70303;SDS011;57712;48.752;11.348;2023-12-20T13:54:24;4.57;;;0.70;;
70303;SDS011;57712;48.752;11.348;2023-12-20T13:56:51;5.65;;;0.93;;
70303;SDS011;57712;48.752;11.348;2023-12-20T13:59:36;5.50;;;1.02;;
70303;SDS011;57712;48.752;11.348;2023-12-20T14:02:02;5.38;;;0.60;;
70303;SDS011;57712;48.752;11.348;2023-12-20T14:04:30;6.07;;;0.50;;
70303;SDS011;57712;48.752;11.348;2023-12-20T14:07:08;5.05;;;0.70;;
70303;SDS011;57712;48.752;11.348;2023-12-20T14:09:38;4.47;;;0.52;;
70303;SDS011;57712;48.752;11.348;2023-12-20T14:12:05;6.07;;;0.50;;
70303;SDS011;57712;48.752;11.348;2023-12-20T14:14:32;6.68;;;0.80;;
70303;SDS011;57712;48.752;11.348;2023-12-20T14:16:58;5.17;;;1.17;;
70303;SDS011;57712;48.752;11.348;2023-12-20T14:19:25;5.65;;;0.80;;
70303;SDS011;57712;48.752;11.348;2023-12-20T14:21:53;6.63;;;0.50;;
70303;SDS011;57712;48.752;11.348;2023-12-20T14:24:19;4.75;;;0.63;;
70303;SDS011;57712;48.752;11.348;2023-12-20T14:26:46;4.72;;;0.68;;
70303;SDS011;57712;48.752;11.348;2023-12-20T14:29:13;4.60;;;0.57;;
70303;SDS011;57712;48.752;11.348;2023-12-20T14:31:39;5.53;;;0.60;;
70303;SDS011;57712;48.752;11.348;2023-12-20T14:34:07;4.85;;;0.75;;
70303;SDS011;57712;48.752;11.348;2023-12-20T14:36:35;7.10;;;0.90;;
70303;SDS011;57712;48.752;11.348;2023-12-20T14:39:01;3.95;;;0.50;;
70303;SDS011;57712;48.752;11.348;2023-12-20T14:41:30;3.87;;;0.30;;